Latest Weather Observations for Richmond

IDN60801

Issued at 6:33 pm EST Sunday 28 August 2016 (issued every 30 minutes, with the page automatically refreshed every 10 minutes)

About weather observations | Map of weather stations | Latest weather observations for NSW | Other Formats
Station Details ID: 067105 Name: RICHMOND RAAF Lat: -33.60 Lon: 150.78 Height: 19.0 m
Data from the previous 72 hours. | See also: Recent months at Richmond
Date/Time
EST
Temp
°C
App
Temp
°C
Dew
Point
°C
Rel
Hum
%
Delta-T
°C
Wind Press
QNH
hPa
Press
MSL
hPa
Rain since
9am
mm
Dir  Spd
km/h
Gust
km/h
Spd
kts
Gust
kts
28/06:30pm 11.7 9.5 5.3 65 2.9 NW 6 7 3 4 1022.4 1022.4 0.0
28/06:00pm 13.7 12.5 4.8 55 4.1 CALM 0 0 0 0 1021.9 1021.9 0.0
28/05:30pm 15.7 13.3 4.4 47 5.3 S 6 7 3 4 1021.7 1021.7 0.0
28/05:00pm 16.7 13.0 4.7 45 5.7 SSE 13 19 7 10 1021.2 1021.2 0.0
28/04:30pm 17.4 12.9 4.4 42 6.1 SSE 17 24 9 13 1021.0 1021.0 0.0
28/04:00pm 17.5 12.9 3.8 40 6.4 S 17 26 9 14 1020.9 1020.9 0.0
28/03:30pm 18.8 13.2 3.4 36 7.2 SSE 22 28 12 15 1020.4 1020.4 0.0
28/03:00pm 19.8 15.2 1.7 30 8.2 SSW 15 20 8 11 1020.3 1020.3 0.0
28/02:30pm 19.5 16.5 4.0 36 7.4 NNE 9 13 5 7 1020.2 1020.2 0.0
28/02:00pm 19.7 17.3 4.2 36 7.4 WNW 6 9 3 5 1020.3 1020.3 0.0
28/01:30pm 19.6 17.6 4.5 37 7.3 E 4 7 2 4 1020.5 1020.5 0.0
28/01:00pm 18.9 15.8 3.5 36 7.2 N 9 13 5 7 1020.8 1020.8 0.0
28/12:30pm 18.2 16.1 4.0 39 6.7 NNW 4 11 2 6 1021.2 1021.2 0.0
28/12:00pm 17.3 14.6 3.6 40 6.3 NE 7 11 4 6 1021.7 1021.7 0.0
28/11:30am 16.4 13.3 3.5 42 5.9 ENE 9 11 5 6 1022.1 1022.1 0.0
28/11:00am 15.4 12.7 3.5 45 5.4 E 7 13 4 7 1022.6 1022.6 0.0
28/10:30am 14.9 12.2 3.7 47 5.1 ENE 7 11 4 6 1022.9 1022.9 0.0
28/10:00am 13.6 11.3 5.5 58 3.8 NNE 7 11 4 6 1023.0 1023.0 0.0
28/09:30am 12.1 10.2 6.6 69 2.6 E 6 9 3 5 1023.2 1023.2 0.0
28/09:00am 10.3 7.7 6.3 76 1.9 E 9 11 5 6 1023.3 1023.3 0.0
28/08:30am 8.2 6.0 5.5 83 1.2 E 6 9 3 5 1023.4 1023.4 0.0
28/08:00am 6.6 3.8 5.1 90 0.7 ENE 9 11 5 6 1023.2 1023.2 0.0
28/07:30am 4.3 1.7 4.0 98 0.1 NNE 7 11 4 6 1023.1 1023.1 0.0
28/07:00am 2.0 0.3 1.7 98 0.1 CALM 0 0 0 0 1023.2 1023.2 0.0
28/06:37am 0.6 -1.3 0.3 98 0.1 CALM 0 0 0 0 1022.6 1022.6 0.0
28/06:30am 0.3 -1.7 0.0 98 0.1 CALM 0 0 0 0 1022.5 1022.5 0.0
28/06:00am 0.9 -2.1 0.6 98 0.1 NE 6 7 3 4 1022.0 1022.0 0.0
28/05:57am 0.8 -2.2 0.5 98 0.1 NNE 6 7 3 4 1022.0 1022.0 0.0
28/05:37am 0.7 -1.2 0.4 98 0.1 CALM 0 0 0 0 1022.3 1022.3 0.0
28/05:30am 0.7 -1.2 0.4 98 0.1 CALM 0 0 0 0 1022.3 1022.3 0.0
28/05:29am 0.8 -1.1 0.5 98 0.1 CALM 0 0 0 0 1022.3 1022.3 0.0
28/05:11am 0.9 -1.0 0.6 98 0.1 CALM 0 4 0 2 1022.3 1022.3 0.0
28/05:00am 0.5 -2.6 0.2 98 0.1 SSW 6 9 3 5 1022.3 1022.3 0.0
28/04:52am 0.8 -2.3 0.4 97 0.1 SSE 6 9 3 5 1022.5 1022.5 0.0
28/04:30am 2.0 -0.9 1.7 98 0.1 ESE 6 9 3 5 1021.9 1021.9 0.0
28/04:00am 1.9 0.1 1.3 96 0.2 CALM 0 0 0 0 1021.7 1021.7 0.0
28/03:30am 2.5 0.1 2.2 98 0.1 WNW 4 7 2 4 1021.5 1021.5 0.0
28/03:00am 2.1 -0.8 1.7 97 0.2 NW 6 7 3 4 1021.5 1021.5 0.0
28/02:30am 2.7 1.0 2.1 96 0.2 CALM 0 0 0 0 1021.8 1021.8 0.0
28/02:00am 3.2 0.5 2.8 97 0.2 W 6 11 3 6 1022.1 1022.1 0.0
28/01:30am 2.8 1.1 1.9 94 0.4 CALM 0 0 0 0 1022.2 1022.2 0.0
28/01:00am 3.0 0.2 2.1 94 0.4 SSE 6 9 3 5 1022.1 1022.1 0.0
28/12:30am 4.3 1.6 2.7 89 0.6 S 6 7 3 4 1022.1 1022.1 0.0
28/12:00am 4.5 3.0 3.2 91 0.5 CALM 0 0 0 0 1021.9 1021.9 0.0
 
Date/Time
EST
Temp
°C
App
Temp
°C
Dew
Point
°C
Rel
Hum
%
Delta-T
°C
Wind Press
QNH
hPa
Press
MSL
hPa
Rain since
9am
mm
Dir  Spd
km/h
Gust
km/h
Spd
kts
Gust
kts
27/11:30pm 5.8 4.0 3.5 85 1.0 NNW 2 6 1 3 1021.9 1021.9 0.0
27/11:00pm 5.9 3.2 3.7 86 0.9 NNE 7 9 4 5 1021.9 1021.9 0.0
27/10:30pm 6.1 3.5 3.3 82 1.2 SW 6 13 3 7 1022.1 1022.1 0.0
27/10:00pm 6.9 5.0 3.0 76 1.6 N 2 7 1 4 1021.8 1021.8 0.0
27/09:30pm 7.9 5.4 3.9 76 1.7 NNE 6 7 3 4 1021.7 1021.7 0.0
27/09:00pm 9.2 6.5 2.8 64 2.7 NNW 6 9 3 5 1021.6 1021.6 0.0
27/08:30pm 10.0 8.3 1.6 56 3.5 CALM 0 6 0 3 1021.3 1021.3 0.0
27/08:00pm 11.0 8.2 1.8 53 3.9 W 6 9 3 5 1021.3 1021.3 0.0
27/07:30pm 12.0 9.1 1.3 48 4.5 SSW 6 7 3 4 1021.0 1021.0 0.0
27/07:00pm 13.2 11.5 2.1 47 4.8 CALM 0 0 0 0 1020.4 1020.4 0.0
27/06:30pm 14.8 12.0 3.3 46 5.2 WSW 7 9 4 5 1020.2 1020.2 0.0
27/06:00pm 14.6 12.4 5.4 54 4.3 ESE 6 13 3 7 1020.1 1020.1 0.0
27/05:30pm 16.3 13.5 5.0 47 5.4 ESE 9 11 5 6 1019.8 1019.8 0.0
27/05:00pm 17.7 14.5 5.3 44 6.0 E 11 17 6 9 1019.6 1019.6 0.0
27/04:30pm 18.6 14.6 5.1 41 6.5 ENE 15 19 8 10 1019.3 1019.3 0.0
27/04:00pm 19.0 15.3 4.4 38 7.0 NE 13 20 7 11 1019.3 1019.3 0.0
27/03:30pm 19.3 15.0 5.4 40 6.8 E 17 24 9 13 1019.3 1019.3 0.0
27/03:00pm 19.1 15.5 5.2 40 6.7 NE 13 19 7 10 1019.5 1019.5 0.0
27/02:30pm 18.9 15.3 5.0 40 6.7 NE 13 20 7 11 1019.8 1019.8 0.0
27/02:00pm 19.1 15.3 5.9 42 6.5 ENE 15 22 8 12 1020.0 1020.0 0.0
27/01:30pm 18.4 14.6 5.6 43 6.2 ENE 15 22 8 12 1020.4 1020.4 0.0
27/01:00pm 17.9 13.9 4.8 42 6.2 NE 15 22 8 12 1021.0 1021.0 0.0
27/12:30pm 17.4 13.3 6.3 48 5.5 E 17 22 9 12 1021.5 1021.5 0.0
27/12:00pm 16.6 13.6 7.5 55 4.5 ENE 13 19 7 10 1022.3 1022.3 0.0
27/11:30am 15.3 12.8 6.6 56 4.2 ENE 9 15 5 8 1023.0 1023.0 0.0
27/11:00am 14.0 11.7 7.3 64 3.3 NE 9 13 5 7 1023.4 1023.4 0.0
27/10:30am 12.8 10.6 6.2 64 3.1 NNE 7 11 4 6 1023.5 1023.5 0.0
27/10:00am 11.8 9.5 5.7 66 2.8 NE 7 11 4 6 1023.6 1023.6 0.0
27/09:30am 10.4 8.4 6.4 76 1.9 NNE 6 9 3 5 1023.9 1023.9 0.0
27/09:00am 8.8 6.6 5.5 80 1.5 NNE 6 9 3 5 1024.0 1024.0 0.0
27/08:30am 7.1 5.1 6.4 95 0.3 NNE 6 9 3 5 1023.8 1023.8 0.0
27/08:01am 5.8 3.6 5.5 98 0.1 NE 6 7 3 4 1023.7 1023.7 0.0
27/08:00am 5.7 3.5 5.4 98 0.1 NE 6 7 3 4 1023.7 1023.7 0.0
27/07:58am 5.7 3.5 5.4 98 0.1 NE 6 7 3 4 1023.7 1023.7 0.0
27/07:40am 4.1 1.6 3.8 98 0.1 NNE 6 7 3 4 1023.5 1023.5 0.0
27/07:30am 3.7 0.9 3.4 98 0.1 NNE 7 9 4 5 1023.5 1023.5 0.0
27/07:23am 3.7 1.5 3.4 98 0.1 NNE 4 9 2 5 1023.5 1023.5 0.0
27/07:00am 2.4 0.7 2.1 98 0.1 CALM 0 0 0 0 1023.4 1023.4 0.0
27/06:59am 2.4 0.7 2.1 98 0.1 CALM 0 0 0 0 1023.4 1023.4 0.0
27/06:57am 2.3 0.6 2.0 98 0.1 CALM 0 0 0 0 1023.4 1023.4 0.0
27/06:30am 1.5 -0.3 1.2 98 0.1 CALM 0 6 0 3 1023.3 1023.3 0.0
27/06:13am 1.7 -1.2 1.4 98 0.1 S 6 9 3 5 1023.1 1023.1 0.0
27/06:05am 2.0 0.3 1.7 98 0.1 CALM 0 0 0 0 1023.0 1023.0 0.0
27/06:00am 2.3 0.6 2.0 98 0.1 CALM 0 0 0 0 1022.9 1022.9 0.0
27/05:30am 2.6 -0.2 2.3 98 0.1 ESE 6 7 3 4 1022.4 1022.4 0.0
27/05:07am 2.6 0.2 2.3 98 0.1 NE 4 7 2 4 1022.3 1022.3 0.0
27/05:00am 2.9 1.3 2.6 98 0.1 CALM 0 0 0 0 1022.2 1022.2 0.0
27/04:44am 2.9 1.3 2.6 98 0.1 CALM 0 0 0 0 1022.2 1022.2 0.0
27/04:30am 3.1 1.6 2.8 98 0.1 CALM 0 0 0 0 1022.2 1022.2 0.0
27/04:00am 3.5 2.0 3.2 98 0.1 CALM 0 0 0 0 1022.1 1022.1 0.0
27/03:56am 3.4 1.9 3.1 98 0.1 CALM 0 0 0 0 1022.1 1022.1 0.0
27/03:30am 4.5 2.8 4.2 98 0.1 NE 2 7 1 4 1022.0 1022.0 0.0
27/03:16am 4.5 1.9 4.2 98 0.1 NNE 7 9 4 5 1022.0 1022.0 0.0
27/03:00am 4.6 3.3 4.3 98 0.1 CALM 0 0 0 0 1021.9 1021.9 0.0
27/02:59am 4.7 3.5 4.4 98 0.1 CALM 0 0 0 0 1021.9 1021.9 0.0
27/02:41am 4.4 2.7 4.1 98 0.1 SSE 2 6 1 3 1022.0 1022.0 0.0
27/02:30am 4.7 3.1 4.4 98 0.1 SSE 2 6 1 3 1022.0 1022.0 0.0
27/02:00am 4.5 3.1 3.8 95 0.3 CALM 0 0 0 0 1022.1 1022.1 0.0
27/01:30am 5.5 4.3 4.8 95 0.3 CALM 0 0 0 0 1022.0 1022.0 0.0
27/01:00am 5.9 4.4 5.0 94 0.4 WSW 2 7 1 4 1022.1 1022.1 0.0
27/12:30am 6.5 4.2 5.8 95 0.3 W 7 9 4 5 1022.0 1022.0 0.0
27/12:00am 6.4 5.0 5.7 95 0.3 WNW 2 6 1 3 1022.0 1022.0 0.0
 
Date/Time
EST
Temp
°C
App
Temp
°C
Dew
Point
°C
Rel
Hum
%
Delta-T
°C
Wind Press
QNH
hPa
Press
MSL
hPa
Rain since
9am
mm
Dir  Spd
km/h
Gust
km/h
Spd
kts
Gust
kts
26/11:30pm 6.7 5.7 5.7 93 0.4 CALM 0 0 0 0 1021.9 1021.9 0.0
26/11:00pm 7.2 4.9 5.7 90 0.7 WSW 7 9 4 5 1021.7 1021.7 0.0
26/10:30pm 7.8 7.0 6.3 90 0.7 CALM 0 0 0 0 1021.7 1021.7 0.0
26/10:00pm 8.8 8.1 6.8 87 0.9 CALM 0 0 0 0 1021.5 1021.5 0.0
26/09:30pm 9.5 7.5 6.4 81 1.4 SW 6 7 3 4 1021.3 1021.3 0.0
26/09:00pm 10.1 9.4 6.8 80 1.5 CALM 0 2 0 1 1021.1 1021.1 0.0
26/08:30pm 11.1 9.1 7.0 76 2.0 W 7 9 4 5 1020.9 1020.9 0.0
26/08:00pm 11.3 9.3 6.4 72 2.3 W 6 7 3 4 1020.7 1020.7 0.0
26/07:30pm 11.8 10.4 7.1 73 2.3 NW 4 7 2 4 1020.5 1020.5 0.0
26/07:00pm 13.5 11.6 6.6 63 3.3 SSE 6 7 3 4 1020.0 1020.0 0.0
26/06:30pm 13.7 10.9 6.8 63 3.3 SE 11 15 6 8 1019.7 1019.7 0.0
26/06:00pm 13.8 10.5 6.2 60 3.6 SE 13 20 7 11 1019.2 1019.2 0.0
26/05:30pm 14.6 11.1 5.4 54 4.3 SE 13 17 7 9 1018.8 1018.8 0.0
26/05:00pm 15.2 11.5 4.6 49 4.9 SE 13 15 7 8 1018.4 1018.4 0.0
26/04:30pm 15.7 11.9 3.8 45 5.5 SE 13 17 7 9 1018.2 1018.2 0.0
26/04:00pm 16.4 12.0 2.8 40 6.2 SSE 15 20 8 11 1017.7 1017.7 0.0
26/03:30pm 16.8 12.7 2.4 38 6.5 SSE 13 28 7 15 1017.5 1017.5 0.0
26/03:00pm 16.3 12.2 2.3 39 6.3 SSE 13 20 7 11 1017.4 1017.4 0.0
26/02:30pm 15.8 12.0 1.9 39 6.2 S 11 17 6 9 1017.4 1017.4 0.0
26/02:00pm 15.8 11.3 1.9 39 6.1 S 15 22 8 12 1017.7 1017.7 0.0
26/01:30pm 16.5 12.0 2.2 38 6.4 S 15 24 8 13 1017.9 1017.9 0.0
26/01:00pm 15.5 11.4 2.0 40 6.0 S 13 20 7 11 1018.0 1018.0 0.0
26/12:30pm 15.7 11.6 2.2 40 6.0 S 13 22 7 12 1018.5 1018.5 0.0
26/12:00pm 14.8 10.7 2.4 43 5.5 S 13 20 7 11 1018.8 1018.8 0.0
26/11:30am 15.4 10.8 3.5 45 5.4 SSW 17 24 9 13 1019.1 1019.1 0.0
26/11:00am 14.3 9.3 3.5 48 4.9 SSW 19 26 10 14 1019.3 1019.3 0.0
26/10:30am 14.0 9.0 3.8 50 4.6 SSW 19 24 10 13 1019.3 1019.3 0.0
26/10:00am 13.5 8.1 2.7 48 4.8 SSW 20 26 11 14 1019.3 1019.3 0.0
26/09:30am 12.7 7.9 2.6 50 4.4 SSW 17 26 9 14 1019.2 1019.2 0.0
26/09:00am 10.6 9.7 6.0 73 2.1 CALM 0 4 0 2 1019.2 1019.2 0.0
26/08:30am 8.4 6.5 4.8 78 1.6 N 4 7 2 4 1019.1 1019.1 0.0
26/08:00am 7.2 5.9 4.3 82 1.3 CALM 0 6 0 3 1019.3 1019.3 0.0
26/07:30am 5.4 2.7 3.7 89 0.7 ESE 7 11 4 6 1019.1 1019.1 0.0
26/07:00am 3.7 1.8 3.0 95 0.3 S 2 7 1 4 1018.6 1018.6 0.0
26/06:30am 2.4 -0.6 1.7 95 0.3 W 7 9 4 5 1018.1 1018.1 0.0
26/06:00am 2.8 0.7 1.8 93 0.4 NNW 2 7 1 4 1017.9 1017.9 0.0
26/05:30am 3.4 1.0 2.2 92 0.5 W 4 7 2 4 1017.5 1017.5 0.0
26/05:00am 3.8 1.1 2.8 93 0.4 WNW 6 7 3 4 1017.2 1017.2 0.0
26/04:30am 3.0 0.0 2.1 94 0.4 WNW 7 11 4 6 1016.8 1016.8 0.0
26/04:00am 3.9 1.6 2.7 92 0.5 W 4 9 2 5 1016.6 1016.6 0.0
26/03:30am 3.5 0.2 2.5 93 0.4 NW 9 13 5 7 1016.4 1016.4 0.0
26/03:00am 3.8 1.9 2.9 94 0.4 ESE 2 7 1 4 1016.5 1016.5 0.0
26/02:30am 3.8 1.5 2.8 93 0.4 SW 4 11 2 6 1016.4 1016.4 0.0
26/02:00am 4.1 1.3 3.1 93 0.4 W 7 9 4 5 1016.4 1016.4 0.0
26/01:30am 4.0 1.4 3.0 93 0.4 SW 6 7 3 4 1016.2 1016.2 0.0
26/01:00am 4.7 1.9 3.2 90 0.6 SSE 7 9 4 5 1016.1 1016.1 0.0
26/12:30am 6.4 4.6 3.4 81 1.3 ENE 2 7 1 4 1015.9 1015.9 0.0
26/12:00am 6.6 3.9 2.9 77 1.5 ENE 6 7 3 4 1015.6 1015.6 0.0
 
Date/Time
EST
Temp
°C
App
Temp
°C
Dew
Point
°C
Rel
Hum
%
Delta-T
°C
Wind Press
QNH
hPa
Press
MSL
hPa
Rain since
9am
mm
Dir  Spd
km/h
Gust
km/h
Spd
kts
Gust
kts
25/11:30pm 7.9 4.3 3.0 71 2.1 E 11 13 6 7 1015.5 1015.5 0.0
25/11:00pm 10.0 5.7 0.9 53 3.7 SW 13 19 7 10 1015.1 1015.1 0.0
25/10:30pm 9.4 6.3 1.6 58 3.2 SE 7 9 4 5 1015.0 1015.0 0.0
25/10:00pm 10.6 6.8 1.7 54 3.7 SW 11 17 6 9 1015.0 1015.0 0.0
25/09:30pm 11.0 6.6 2.8 57 3.6 WSW 15 20 8 11 1014.7 1014.7 0.0
25/09:00pm 11.0 6.8 3.8 61 3.2 WSW 15 20 8 11 1014.6 1014.6 0.0
25/08:30pm 11.5 5.7 4.3 61 3.2 W 24 28 13 15 1014.5 1014.5 0.0
25/08:00pm 10.3 7.0 4.5 67 2.6 W 11 17 6 9 1014.2 1014.2 0.0
25/07:30pm 11.3 8.4 4.5 63 3.1 W 9 15 5 8 1013.9 1013.9 0.0
25/07:00pm 11.4 7.9 3.7 59 3.4 WNW 11 15 6 8 1013.5 1013.5 0.0

Other Formats:

Comma delimited format used in spreadsheet applications
http://www.bom.gov.au/fwo/IDN60801/IDN60801.95753.axf

JavaScript Object Notation format (JSON) in row-major order
http://www.bom.gov.au/fwo/IDN60801/IDN60801.95753.json